createdAt,value
2022-12-16T00:01:42.983Z,-3.02
2022-12-16T00:04:49.496Z,-2.99
2022-12-16T00:07:56.501Z,-3.00
2022-12-16T00:11:07.086Z,-2.98
2022-12-16T00:14:12.479Z,-3.04
2022-12-16T00:17:18.750Z,-3.06
2022-12-16T00:20:24.152Z,-3.08
2022-12-16T00:23:32.247Z,-3.10
2022-12-16T00:26:40.675Z,-3.13
2022-12-16T00:29:46.924Z,-3.10
2022-12-16T00:32:52.324Z,-3.07
2022-12-16T00:36:00.536Z,-3.11
2022-12-16T00:39:06.796Z,-3.13
2022-12-16T00:42:15.767Z,-3.15
2022-12-16T00:45:21.259Z,-3.17
2022-12-16T00:48:27.740Z,-3.34
2022-12-16T00:51:33.080Z,-3.25
2022-12-16T00:54:39.476Z,-3.28
2022-12-16T00:57:48.727Z,-3.54
2022-12-16T01:00:55.273Z,-3.45
2022-12-16T01:04:00.889Z,-3.39
2022-12-16T01:07:07.372Z,-3.36
2022-12-16T01:10:15.267Z,-3.35
2022-12-16T01:13:27.357Z,-3.30
2022-12-16T01:16:32.879Z,-3.28
2022-12-16T01:19:39.182Z,-3.30
2022-12-16T01:22:45.196Z,-3.34
2022-12-16T01:26:01.144Z,-3.35
2022-12-16T01:29:09.498Z,-3.37
2022-12-16T01:32:17.096Z,-3.38
2022-12-16T01:35:51.925Z,-3.42
2022-12-16T01:38:50.460Z,-3.42
2022-12-16T01:41:56.546Z,-3.44
2022-12-16T01:45:33.886Z,-3.44
2022-12-16T01:48:49.938Z,-3.51
2022-12-16T01:52:05.496Z,-3.50
2022-12-16T01:55:21.641Z,-3.53
2022-12-16T01:58:34.929Z,-3.56
2022-12-16T02:01:43.363Z,-3.58
2022-12-16T02:05:01.773Z,-3.64
2022-12-16T02:08:16.507Z,-3.71
2022-12-16T02:11:53.852Z,-3.71
2022-12-16T02:15:31.815Z,-3.74
2022-12-16T02:18:58.486Z,-3.84
2022-12-16T02:22:37.844Z,-3.81
2022-12-16T02:26:32.284Z,-3.84
2022-12-16T02:30:10.389Z,-3.77
2022-12-16T02:33:48.736Z,-3.74
2022-12-16T02:37:16.668Z,-3.69
2022-12-16T02:40:35.995Z,-3.70
2022-12-16T02:43:58.221Z,-3.73
2022-12-16T02:47:04.408Z,-3.77
2022-12-16T02:50:24.493Z,-3.78
2022-12-16T02:53:34.820Z,-3.83
2022-12-16T02:57:05.397Z,-3.88
2022-12-16T03:00:16.669Z,-3.80
2022-12-16T03:03:32.210Z,-3.80
2022-12-16T03:06:50.709Z,-3.80
2022-12-16T03:10:02.420Z,-3.87
2022-12-16T03:13:14.141Z,-3.92
2022-12-16T03:16:27.859Z,-3.91
2022-12-16T03:19:35.187Z,-3.90
2022-12-16T03:22:51.506Z,-3.93
2022-12-16T03:26:10.215Z,-4.01
2022-12-16T03:29:27.849Z,-4.00
2022-12-16T03:32:44.012Z,-3.94
2022-12-16T03:36:01.757Z,-3.90
2022-12-16T03:39:13.427Z,-3.90
2022-12-16T03:42:19.806Z,-3.92
2022-12-16T03:45:33.588Z,-4.00
2022-12-16T03:48:39.277Z,-3.99
2022-12-16T03:51:45.521Z,-3.98
2022-12-16T03:54:53.727Z,-3.96
2022-12-16T03:58:00.213Z,-3.95
2022-12-16T04:01:05.638Z,-4.03
2022-12-16T04:04:12.236Z,-4.09
2022-12-16T04:07:24.975Z,-4.08
2022-12-16T04:10:49.962Z,-4.12
2022-12-16T04:14:10.335Z,-4.11
2022-12-16T04:17:33.228Z,-4.08
2022-12-16T04:21:01.540Z,-4.05
2022-12-16T04:24:24.348Z,-4.00
2022-12-16T04:27:32.687Z,-3.92
2022-12-16T04:30:39.478Z,-3.85
2022-12-16T04:34:00.784Z,-3.82
2022-12-16T04:37:22.759Z,-3.78
2022-12-16T04:40:43.914Z,-3.75
2022-12-16T04:44:13.684Z,-3.73
2022-12-16T04:47:35.150Z,-3.73
2022-12-16T04:50:57.261Z,-3.73
2022-12-16T04:54:18.639Z,-3.69
2022-12-16T04:57:40.769Z,-3.68
2022-12-16T05:01:07.140Z,-3.66
2022-12-16T05:04:29.249Z,-3.66
2022-12-16T05:07:50.363Z,-3.68
2022-12-16T05:11:12.477Z,-3.66
2022-12-16T05:14:33.732Z,-3.59
2022-12-16T05:17:58.216Z,-3.53
2022-12-16T05:21:21.601Z,-3.49
2022-12-16T05:24:46.264Z,-3.50
2022-12-16T05:28:12.361Z,-3.65
2022-12-16T05:31:34.272Z,-3.59
2022-12-16T05:35:03.587Z,-3.58
2022-12-16T05:38:25.346Z,-3.61
2022-12-16T05:41:46.485Z,-3.62
2022-12-16T05:45:08.596Z,-3.61
2022-12-16T05:48:29.607Z,-3.60
2022-12-16T05:51:54.583Z,-3.62
2022-12-16T05:55:16.015Z,-3.65
2022-12-16T05:58:38.641Z,-3.64
2022-12-16T06:01:59.833Z,-3.59
2022-12-16T06:05:21.982Z,-3.62
2022-12-16T06:08:45.637Z,-3.54
2022-12-16T06:12:08.181Z,-3.50
2022-12-16T06:15:30.489Z,-3.48
2022-12-16T06:18:52.572Z,-3.46
2022-12-16T06:22:14.106Z,-3.49
2022-12-16T06:25:38.600Z,-3.50
2022-12-16T06:28:59.865Z,-3.55
2022-12-16T06:32:27.340Z,-3.51
2022-12-16T06:35:49.070Z,-3.53
2022-12-16T06:39:11.200Z,-3.56
2022-12-16T06:42:35.581Z,-3.52
2022-12-16T06:45:57.770Z,-3.50
2022-12-16T06:49:19.026Z,-3.47
2022-12-16T06:52:40.996Z,-3.52
2022-12-16T06:56:02.368Z,-3.51
2022-12-16T06:59:27.762Z,-3.56
2022-12-16T07:02:49.373Z,-3.53
2022-12-16T07:06:12.010Z,-3.54
2022-12-16T07:09:33.108Z,-3.49
2022-12-16T07:12:55.047Z,-3.46
2022-12-16T07:16:19.182Z,-3.46
2022-12-16T07:19:41.092Z,-3.48
2022-12-16T07:23:09.864Z,-3.53
2022-12-16T07:26:35.086Z,-3.59
2022-12-16T07:29:56.522Z,-3.55
2022-12-16T07:33:20.827Z,-3.53
2022-12-16T07:36:42.067Z,-3.61
2022-12-16T07:40:04.067Z,-3.65
2022-12-16T07:43:24.966Z,-3.65
2022-12-16T07:46:58.775Z,-3.61
2022-12-16T07:50:23.143Z,-3.58
2022-12-16T07:53:46.305Z,-3.59
2022-12-16T07:57:07.647Z,-3.60
2022-12-16T08:00:30.702Z,-3.54
2022-12-16T08:03:51.775Z,-3.56
2022-12-16T08:07:18.175Z,-3.53
2022-12-16T08:10:39.415Z,-3.45
2022-12-16T08:14:01.476Z,-3.36
2022-12-16T08:17:37.366Z,-3.35
2022-12-16T08:20:59.630Z,-3.38
2022-12-16T08:24:23.768Z,-3.33
2022-12-16T08:27:45.948Z,-3.37
2022-12-16T08:31:09.267Z,-3.39
2022-12-16T08:34:31.262Z,-3.46
2022-12-16T08:37:52.354Z,-3.31
2022-12-16T08:41:18.055Z,-3.24
2022-12-16T08:44:39.512Z,-3.19
2022-12-16T08:48:09.614Z,-3.73
2022-12-16T08:51:33.621Z,-3.27
2022-12-16T08:54:55.738Z,-3.16
2022-12-16T08:58:32.083Z,-3.02
2022-12-16T09:01:53.991Z,-2.94
2022-12-16T09:05:16.901Z,-2.89
2022-12-16T09:08:38.845Z,-2.77
2022-12-16T09:11:59.912Z,-2.74
2022-12-16T09:15:25.587Z,-2.61
2022-12-16T09:18:46.609Z,-2.53
2022-12-16T09:22:08.556Z,-2.47
2022-12-16T09:25:30.262Z,-2.57
2022-12-16T09:28:52.796Z,-2.59
2022-12-16T09:32:16.983Z,-2.61
2022-12-16T09:35:38.942Z,-2.69
2022-12-16T09:39:00.169Z,-2.71
2022-12-16T09:42:52.140Z,-2.63
2022-12-16T09:46:37.559Z,-2.63
2022-12-16T09:50:08.868Z,-2.91
2022-12-16T09:53:37.069Z,-2.97
2022-12-16T09:57:01.724Z,-2.88
2022-12-16T10:00:35.968Z,-2.84
2022-12-16T10:04:00.054Z,-2.85
2022-12-16T10:07:35.693Z,-2.85
2022-12-16T10:11:18.517Z,-2.81
2022-12-16T10:14:52.596Z,-2.81
2022-12-16T10:18:18.109Z,-2.75
2022-12-16T10:21:51.382Z,-2.78
2022-12-16T10:25:32.039Z,-2.54
2022-12-16T10:29:05.864Z,-2.50
2022-12-16T10:32:44.114Z,-2.51
2022-12-16T10:36:12.237Z,-2.50
2022-12-16T10:39:48.194Z,-2.45
2022-12-16T10:43:35.618Z,-2.43
2022-12-16T10:46:58.187Z,-2.43
2022-12-16T10:50:19.480Z,-2.40
2022-12-16T10:53:46.574Z,-2.37
2022-12-16T10:57:23.753Z,-2.50
2022-12-16T11:01:04.725Z,-2.43
2022-12-16T11:04:52.248Z,-2.50
2022-12-16T11:08:18.298Z,-2.53
2022-12-16T11:11:45.424Z,-2.56
2022-12-16T11:15:28.603Z,-2.48
2022-12-16T11:18:53.161Z,-2.49
2022-12-16T11:22:31.409Z,-2.41
2022-12-16T11:25:53.305Z,-2.40
2022-12-16T11:29:34.223Z,-2.37
2022-12-16T11:33:01.074Z,-2.30
2022-12-16T11:36:36.840Z,-2.24
2022-12-16T11:39:59.616Z,-2.16
2022-12-16T11:43:25.116Z,-2.08
2022-12-16T11:46:48.275Z,-2.16
2022-12-16T11:50:13.760Z,-2.27
2022-12-16T11:53:52.949Z,-2.29
2022-12-16T11:57:21.858Z,-2.32
2022-12-16T12:00:42.820Z,-2.37
2022-12-16T12:04:09.924Z,-2.25
2022-12-16T12:07:55.584Z,-2.24
2022-12-16T12:11:37.462Z,-2.21
2022-12-16T12:15:11.943Z,-2.22
2022-12-16T12:18:52.992Z,-2.40
2022-12-16T12:22:28.123Z,-2.49
2022-12-16T12:26:04.200Z,-2.62
2022-12-16T12:29:42.332Z,-2.68
2022-12-16T12:33:31.779Z,-2.76
2022-12-16T12:37:05.612Z,-2.84
2022-12-16T12:40:46.681Z,-3.16
2022-12-16T12:44:36.469Z,-2.68
2022-12-16T12:48:23.651Z,-2.70
2022-12-16T12:51:56.469Z,-2.74
2022-12-16T12:55:50.582Z,-2.74
2022-12-16T12:59:32.340Z,-2.72
2022-12-16T13:03:11.543Z,-2.72
2022-12-16T13:06:35.001Z,-2.71
2022-12-16T13:09:58.414Z,-2.69
2022-12-16T13:13:48.662Z,-2.72
2022-12-16T13:17:25.243Z,-2.71
2022-12-16T13:21:03.246Z,-2.64
2022-12-16T13:24:54.784Z,-2.68
2022-12-16T13:28:16.170Z,-2.69
2022-12-16T13:31:40.014Z,-2.74
2022-12-16T13:35:01.759Z,-2.81
2022-12-16T13:38:39.799Z,-2.88
2022-12-16T13:42:17.449Z,-2.82
2022-12-16T13:46:00.243Z,-2.79
2022-12-16T13:50:03.230Z,-2.73
2022-12-16T13:53:31.700Z,-2.69
2022-12-16T13:57:00.229Z,-2.72
2022-12-16T14:00:36.755Z,-2.70
2022-12-16T14:04:05.967Z,-2.67
2022-12-16T14:07:29.025Z,-2.63
2022-12-16T14:10:58.312Z,-2.65
2022-12-16T14:14:32.946Z,-2.66
2022-12-16T14:18:23.603Z,-2.74
2022-12-16T14:22:00.805Z,-2.84
2022-12-16T14:25:31.505Z,-3.11
2022-12-16T14:28:59.100Z,-3.00
2022-12-16T14:32:20.381Z,-3.06
2022-12-16T14:35:46.577Z,-3.16
2022-12-16T14:39:08.749Z,-3.14
2022-12-16T14:42:41.476Z,-3.30
2022-12-16T14:46:09.530Z,-3.22
2022-12-16T14:49:43.251Z,-3.21
2022-12-16T14:53:04.583Z,-3.20
2022-12-16T14:56:38.018Z,-3.18
2022-12-16T14:59:59.365Z,-3.18
2022-12-16T15:03:38.307Z,-3.17
2022-12-16T15:07:05.422Z,-3.11
2022-12-16T15:10:34.012Z,-3.09
2022-12-16T15:14:01.767Z,-3.12
2022-12-16T15:17:35.894Z,-3.13
2022-12-16T15:21:10.171Z,-3.20
2022-12-16T15:24:39.671Z,-3.28
2022-12-16T15:28:00.854Z,-3.29
2022-12-16T15:31:33.885Z,-3.32
2022-12-16T15:35:05.771Z,-3.37
2022-12-16T15:38:46.586Z,-3.35
2022-12-16T15:42:10.075Z,-3.26
2022-12-16T15:45:42.855Z,-3.24
2022-12-16T15:49:11.352Z,-3.28
2022-12-16T15:52:55.238Z,-3.30
2022-12-16T15:56:19.490Z,-3.33
2022-12-16T15:59:49.073Z,-3.32
2022-12-16T16:03:10.516Z,-3.27
2022-12-16T16:06:40.563Z,-3.26
2022-12-16T16:10:02.099Z,-3.22
2022-12-16T16:13:28.512Z,-3.20
2022-12-16T16:16:50.073Z,-3.27
2022-12-16T16:20:12.224Z,-3.26
2022-12-16T16:23:34.145Z,-3.31
2022-12-16T16:26:56.644Z,-3.32
2022-12-16T16:30:29.165Z,-3.40
2022-12-16T16:33:56.147Z,-3.40
2022-12-16T16:37:18.099Z,-3.61
2022-12-16T16:40:52.664Z,-3.46
2022-12-16T16:44:11.924Z,-3.45
2022-12-16T16:47:39.998Z,-3.49
2022-12-16T16:51:00.993Z,-3.45
2022-12-16T16:54:23.055Z,-3.46
2022-12-16T16:57:50.619Z,-3.49
2022-12-16T17:01:12.945Z,-3.50
2022-12-16T17:04:36.872Z,-3.51
2022-12-16T17:07:58.737Z,-3.51
2022-12-16T17:11:20.414Z,-3.51
2022-12-16T17:14:42.404Z,-3.46
2022-12-16T17:18:03.504Z,-3.44
2022-12-16T17:21:29.035Z,-3.44
2022-12-16T17:24:53.922Z,-3.47
2022-12-16T17:28:16.631Z,-3.50
2022-12-16T17:31:37.736Z,-3.50
2022-12-16T17:34:59.672Z,-3.48
2022-12-16T17:38:23.659Z,-3.49
2022-12-16T17:41:48.298Z,-3.54
2022-12-16T17:45:09.343Z,-3.62
2022-12-16T17:48:32.693Z,-3.67
2022-12-16T17:51:53.918Z,-3.74
2022-12-16T17:55:18.451Z,-3.83
2022-12-16T17:58:39.701Z,-3.92
2022-12-16T18:02:02.247Z,-3.95
2022-12-16T18:05:24.046Z,-3.98
2022-12-16T18:08:46.160Z,-4.03
2022-12-16T18:12:10.376Z,-4.05
2022-12-16T18:15:32.415Z,-4.05
2022-12-16T18:18:54.427Z,-4.08
2022-12-16T18:22:16.492Z,-4.08
2022-12-16T18:25:37.572Z,-4.09
2022-12-16T18:29:02.840Z,-4.12
2022-12-16T18:32:24.633Z,-4.17
2022-12-16T18:35:58.260Z,-4.15
2022-12-16T18:39:19.073Z,-4.24
2022-12-16T18:42:40.985Z,-4.25
2022-12-16T18:46:13.964Z,-4.35
2022-12-16T18:49:36.339Z,-4.38
2022-12-16T18:52:57.721Z,-4.32
2022-12-16T18:56:21.321Z,-4.25
2022-12-16T18:59:42.636Z,-4.27
2022-12-16T19:03:07.452Z,-4.31
2022-12-16T19:06:29.252Z,-4.31
2022-12-16T19:09:51.245Z,-4.34
2022-12-16T19:13:14.982Z,-4.28
2022-12-16T19:16:37.218Z,-4.36
2022-12-16T19:20:01.340Z,-4.33
2022-12-16T19:23:23.259Z,-4.30
2022-12-16T19:26:44.692Z,-4.23
2022-12-16T19:30:06.913Z,-4.27
2022-12-16T19:33:27.976Z,-4.31
2022-12-16T19:36:53.743Z,-4.34
2022-12-16T19:40:14.916Z,-4.37
2022-12-16T19:43:37.224Z,-4.30
2022-12-16T19:46:58.297Z,-4.25
2022-12-16T19:50:21.179Z,-4.20
2022-12-16T19:53:45.373Z,-4.10
2022-12-16T19:57:07.733Z,-4.03
2022-12-16T20:00:31.085Z,-3.97
2022-12-16T20:03:54.029Z,-3.98
2022-12-16T20:07:23.053Z,-4.01
2022-12-16T20:10:48.213Z,-3.92
2022-12-16T20:14:13.172Z,-3.88
2022-12-16T20:17:35.224Z,-3.80
2022-12-16T20:20:56.285Z,-3.83
2022-12-16T20:24:18.309Z,-3.89
2022-12-16T20:27:42.820Z,-3.92
2022-12-16T20:31:04.952Z,-3.94
2022-12-16T20:34:28.347Z,-4.01
2022-12-16T20:37:51.687Z,-4.09
2022-12-16T20:41:17.403Z,-4.18
2022-12-16T20:44:42.513Z,-4.17
2022-12-16T20:48:03.821Z,-4.24
2022-12-16T20:51:40.416Z,-4.30
2022-12-16T20:55:01.782Z,-4.32
2022-12-16T20:58:24.069Z,-4.30
2022-12-16T21:02:21.244Z,-4.37
2022-12-16T21:05:30.529Z,-4.39
2022-12-16T21:09:04.108Z,-4.45
2022-12-16T21:12:26.468Z,-4.50
2022-12-16T21:15:47.737Z,-4.49
2022-12-16T21:19:12.902Z,-4.51
2022-12-16T21:22:33.449Z,-4.48
2022-12-16T21:25:58.619Z,-4.56
2022-12-16T21:29:19.699Z,-4.55
2022-12-16T21:32:44.494Z,-4.56
2022-12-16T21:36:13.810Z,-4.70
2022-12-16T21:39:50.455Z,-4.78
2022-12-16T21:43:11.758Z,-4.83
2022-12-16T21:46:33.544Z,-4.81
2022-12-16T21:49:56.183Z,-4.89
2022-12-16T21:53:20.996Z,-4.90
2022-12-16T21:56:42.714Z,-4.94
2022-12-16T22:00:04.662Z,-5.02
2022-12-16T22:03:32.026Z,-5.00
2022-12-16T22:06:54.025Z,-4.95
2022-12-16T22:10:19.133Z,-4.96
2022-12-16T22:13:41.660Z,-4.98
2022-12-16T22:17:05.788Z,-4.94
2022-12-16T22:20:29.142Z,-4.93
2022-12-16T22:23:50.384Z,-4.95
2022-12-16T22:27:16.070Z,-5.00
2022-12-16T22:30:37.141Z,-5.03
2022-12-16T22:33:59.102Z,-5.10
2022-12-16T22:37:20.311Z,-5.14
2022-12-16T22:40:42.417Z,-5.19
2022-12-16T22:44:06.494Z,-5.21
2022-12-16T22:47:28.529Z,-5.23
2022-12-16T22:50:51.215Z,-5.20
2022-12-16T22:54:13.724Z,-5.19
2022-12-16T22:57:34.918Z,-5.15
2022-12-16T23:01:12.078Z,-5.08
2022-12-16T23:04:33.581Z,-5.00
2022-12-16T23:07:55.737Z,-4.95
2022-12-16T23:11:33.645Z,-4.90
2022-12-16T23:14:56.658Z,-4.92
2022-12-16T23:18:20.773Z,-4.91
2022-12-16T23:21:42.821Z,-4.95
2022-12-16T23:25:03.599Z,-4.96
2022-12-16T23:28:25.662Z,-5.04
2022-12-16T23:31:46.777Z,-5.04
2022-12-16T23:35:11.640Z,-5.06
2022-12-16T23:38:32.770Z,-5.11
2022-12-16T23:41:54.861Z,-5.10
2022-12-16T23:45:17.628Z,-5.12
2022-12-16T23:48:39.574Z,-5.10
2022-12-16T23:52:03.572Z,-5.06
2022-12-16T23:55:26.523Z,-5.03
2022-12-16T23:58:47.513Z,-5.11
